sensor_id;sensor_type;location;lat;lon;timestamp;P1;durP1;ratioP1;P2;durP2;ratioP2
60653;SDS011;46476;53.614;10.048;2022-08-03T00:00:42;4.75;;;2.38;;
60653;SDS011;46476;53.614;10.048;2022-08-03T00:03:08;5.45;;;2.72;;
60653;SDS011;46476;53.614;10.048;2022-08-03T00:05:33;3.00;;;2.45;;
60653;SDS011;46476;53.614;10.048;2022-08-03T00:07:59;3.67;;;2.90;;
60653;SDS011;46476;53.614;10.048;2022-08-03T00:10:24;3.05;;;2.67;;
60653;SDS011;46476;53.614;10.048;2022-08-03T00:12:50;3.90;;;2.60;;
60653;SDS011;46476;53.614;10.048;2022-08-03T00:15:16;3.88;;;2.80;;
60653;SDS011;46476;53.614;10.048;2022-08-03T00:17:41;3.40;;;2.60;;
60653;SDS011;46476;53.614;10.048;2022-08-03T00:20:07;3.47;;;2.78;;
60653;SDS011;46476;53.614;10.048;2022-08-03T00:22:36;2.80;;;2.50;;
60653;SDS011;46476;53.614;10.048;2022-08-03T00:25:02;2.83;;;2.63;;
60653;SDS011;46476;53.614;10.048;2022-08-03T00:27:27;7.28;;;3.25;;
60653;SDS011;46476;53.614;10.048;2022-08-03T00:29:53;4.30;;;2.78;;
60653;SDS011;46476;53.614;10.048;2022-08-03T00:32:18;4.68;;;2.47;;
60653;SDS011;46476;53.614;10.048;2022-08-03T00:34:43;4.15;;;2.60;;
60653;SDS011;46476;53.614;10.048;2022-08-03T00:37:09;4.60;;;2.60;;
60653;SDS011;46476;53.614;10.048;2022-08-03T00:39:34;4.95;;;2.65;;
60653;SDS011;46476;53.614;10.048;2022-08-03T00:42:03;4.38;;;3.05;;
60653;SDS011;46476;53.614;10.048;2022-08-03T00:44:29;4.10;;;2.80;;
60653;SDS011;46476;53.614;10.048;2022-08-03T00:46:55;3.28;;;2.63;;
60653;SDS011;46476;53.614;10.048;2022-08-03T00:49:20;5.13;;;2.80;;
60653;SDS011;46476;53.614;10.048;2022-08-03T00:51:45;3.53;;;2.67;;
60653;SDS011;46476;53.614;10.048;2022-08-03T00:54:11;3.42;;;2.85;;
60653;SDS011;46476;53.614;10.048;2022-08-03T00:56:38;4.30;;;2.80;;
60653;SDS011;46476;53.614;10.048;2022-08-03T00:59:05;3.38;;;2.60;;
60653;SDS011;46476;53.614;10.048;2022-08-03T01:01:31;3.65;;;2.92;;
60653;SDS011;46476;53.614;10.048;2022-08-03T01:03:56;4.32;;;2.92;;
60653;SDS011;46476;53.614;10.048;2022-08-03T01:06:24;3.65;;;2.80;;
60653;SDS011;46476;53.614;10.048;2022-08-03T01:11:33;3.92;;;2.85;;
60653;SDS011;46476;53.614;10.048;2022-08-03T01:16:37;3.47;;;2.83;;
60653;SDS011;46476;53.614;10.048;2022-08-03T01:30:39;3.58;;;2.78;;
60653;SDS011;46476;53.614;10.048;2022-08-03T01:33:16;3.13;;;2.63;;
60653;SDS011;46476;53.614;10.048;2022-08-03T01:35:45;4.60;;;2.90;;
60653;SDS011;46476;53.614;10.048;2022-08-03T01:38:25;3.03;;;2.75;;
60653;SDS011;46476;53.614;10.048;2022-08-03T01:40:53;4.60;;;3.08;;
60653;SDS011;46476;53.614;10.048;2022-08-03T01:43:22;6.13;;;3.22;;
60653;SDS011;46476;53.614;10.048;2022-08-03T01:45:54;4.50;;;3.22;;
60653;SDS011;46476;53.614;10.048;2022-08-03T01:48:21;3.65;;;3.00;;
60653;SDS011;46476;53.614;10.048;2022-08-03T01:50:47;3.38;;;3.00;;
60653;SDS011;46476;53.614;10.048;2022-08-03T01:53:14;4.63;;;2.60;;
60653;SDS011;46476;53.614;10.048;2022-08-03T01:55:41;4.65;;;2.70;;
60653;SDS011;46476;53.614;10.048;2022-08-03T01:58:08;3.47;;;2.83;;
60653;SDS011;46476;53.614;10.048;2022-08-03T02:00:35;4.03;;;2.97;;
60653;SDS011;46476;53.614;10.048;2022-08-03T02:03:04;4.68;;;2.75;;
60653;SDS011;46476;53.614;10.048;2022-08-03T02:05:31;3.25;;;2.95;;
60653;SDS011;46476;53.614;10.048;2022-08-03T02:07:57;3.85;;;2.75;;
60653;SDS011;46476;53.614;10.048;2022-08-03T02:10:24;2.85;;;2.63;;
60653;SDS011;46476;53.614;10.048;2022-08-03T02:12:51;4.10;;;2.88;;
60653;SDS011;46476;53.614;10.048;2022-08-03T02:15:17;3.08;;;2.78;;
60653;SDS011;46476;53.614;10.048;2022-08-03T02:17:45;3.15;;;2.80;;
60653;SDS011;46476;53.614;10.048;2022-08-03T02:20:11;3.50;;;2.83;;
60653;SDS011;46476;53.614;10.048;2022-08-03T02:22:41;4.75;;;3.30;;
60653;SDS011;46476;53.614;10.048;2022-08-03T02:25:08;7.18;;;3.00;;
60653;SDS011;46476;53.614;10.048;2022-08-03T02:27:34;3.40;;;2.83;;
60653;SDS011;46476;53.614;10.048;2022-08-03T02:30:04;3.00;;;2.65;;
60653;SDS011;46476;53.614;10.048;2022-08-03T02:32:37;4.20;;;2.78;;
60653;SDS011;46476;53.614;10.048;2022-08-03T02:35:05;3.88;;;3.15;;
60653;SDS011;46476;53.614;10.048;2022-08-03T02:37:37;3.53;;;2.67;;
60653;SDS011;46476;53.614;10.048;2022-08-03T02:40:07;3.92;;;2.90;;
60653;SDS011;46476;53.614;10.048;2022-08-03T02:42:34;3.25;;;2.90;;
60653;SDS011;46476;53.614;10.048;2022-08-03T02:45:03;2.80;;;2.60;;
60653;SDS011;46476;53.614;10.048;2022-08-03T02:47:31;3.67;;;2.78;;
60653;SDS011;46476;53.614;10.048;2022-08-03T02:50:00;3.25;;;2.88;;
60653;SDS011;46476;53.614;10.048;2022-08-03T02:52:27;2.97;;;2.72;;
60653;SDS011;46476;53.614;10.048;2022-08-03T02:54:55;3.25;;;2.58;;
60653;SDS011;46476;53.614;10.048;2022-08-03T02:57:23;3.72;;;2.60;;
60653;SDS011;46476;53.614;10.048;2022-08-03T02:59:52;4.18;;;2.63;;
60653;SDS011;46476;53.614;10.048;2022-08-03T03:02:19;3.35;;;2.80;;
60653;SDS011;46476;53.614;10.048;2022-08-03T03:04:45;3.33;;;2.70;;
60653;SDS011;46476;53.614;10.048;2022-08-03T03:07:11;3.05;;;2.75;;
60653;SDS011;46476;53.614;10.048;2022-08-03T03:09:38;5.05;;;2.90;;
60653;SDS011;46476;53.614;10.048;2022-08-03T03:12:04;4.78;;;3.55;;
60653;SDS011;46476;53.614;10.048;2022-08-03T03:14:33;3.33;;;3.03;;
60653;SDS011;46476;53.614;10.048;2022-08-03T03:17:01;4.07;;;2.78;;
60653;SDS011;46476;53.614;10.048;2022-08-03T03:19:27;3.15;;;2.67;;
60653;SDS011;46476;53.614;10.048;2022-08-03T03:21:54;3.15;;;2.85;;
60653;SDS011;46476;53.614;10.048;2022-08-03T03:24:22;3.67;;;2.58;;
60653;SDS011;46476;53.614;10.048;2022-08-03T03:26:47;4.72;;;2.90;;
60653;SDS011;46476;53.614;10.048;2022-08-03T03:29:13;4.40;;;3.53;;
60653;SDS011;46476;53.614;10.048;2022-08-03T03:31:40;5.28;;;3.22;;
60653;SDS011;46476;53.614;10.048;2022-08-03T03:34:05;3.20;;;2.72;;
60653;SDS011;46476;53.614;10.048;2022-08-03T03:36:31;4.18;;;3.13;;
60653;SDS011;46476;53.614;10.048;2022-08-03T03:38:56;4.10;;;3.00;;
60653;SDS011;46476;53.614;10.048;2022-08-03T03:41:21;4.30;;;3.25;;
60653;SDS011;46476;53.614;10.048;2022-08-03T03:43:48;3.25;;;2.88;;
60653;SDS011;46476;53.614;10.048;2022-08-03T03:46:14;3.60;;;3.08;;
60653;SDS011;46476;53.614;10.048;2022-08-03T03:48:39;4.15;;;3.00;;
60653;SDS011;46476;53.614;10.048;2022-08-03T03:51:05;3.40;;;3.05;;
60653;SDS011;46476;53.614;10.048;2022-08-03T03:53:31;3.78;;;3.00;;
60653;SDS011;46476;53.614;10.048;2022-08-03T03:55:56;2.97;;;2.78;;
60653;SDS011;46476;53.614;10.048;2022-08-03T03:58:21;4.80;;;3.33;;
60653;SDS011;46476;53.614;10.048;2022-08-03T04:00:47;3.30;;;3.03;;
60653;SDS011;46476;53.614;10.048;2022-08-03T04:03:13;3.35;;;3.05;;
60653;SDS011;46476;53.614;10.048;2022-08-03T04:05:39;3.38;;;2.80;;
60653;SDS011;46476;53.614;10.048;2022-08-03T04:08:23;3.40;;;3.05;;
60653;SDS011;46476;53.614;10.048;2022-08-03T04:11:15;3.20;;;2.90;;
60653;SDS011;46476;53.614;10.048;2022-08-03T04:16:29;3.58;;;3.20;;
60653;SDS011;46476;53.614;10.048;2022-08-03T04:19:05;3.53;;;3.20;;
60653;SDS011;46476;53.614;10.048;2022-08-03T04:21:33;3.45;;;3.03;;
60653;SDS011;46476;53.614;10.048;2022-08-03T04:24:02;4.25;;;3.10;;
60653;SDS011;46476;53.614;10.048;2022-08-03T04:26:30;4.15;;;3.20;;
60653;SDS011;46476;53.614;10.048;2022-08-03T04:29:00;4.65;;;3.08;;
60653;SDS011;46476;53.614;10.048;2022-08-03T04:31:28;3.97;;;3.20;;
60653;SDS011;46476;53.614;10.048;2022-08-03T04:33:54;3.40;;;3.00;;
60653;SDS011;46476;53.614;10.048;2022-08-03T04:36:21;5.30;;;3.15;;
60653;SDS011;46476;53.614;10.048;2022-08-03T04:38:58;6.90;;;3.47;;
60653;SDS011;46476;53.614;10.048;2022-08-03T04:41:26;3.55;;;3.20;;
60653;SDS011;46476;53.614;10.048;2022-08-03T04:43:53;3.60;;;3.30;;
60653;SDS011;46476;53.614;10.048;2022-08-03T04:46:21;3.47;;;3.03;;
60653;SDS011;46476;53.614;10.048;2022-08-03T04:48:50;3.50;;;3.20;;
60653;SDS011;46476;53.614;10.048;2022-08-03T04:51:15;4.10;;;3.17;;
60653;SDS011;46476;53.614;10.048;2022-08-03T04:53:41;3.67;;;3.30;;
60653;SDS011;46476;53.614;10.048;2022-08-03T04:56:07;3.42;;;2.97;;
60653;SDS011;46476;53.614;10.048;2022-08-03T04:58:33;4.05;;;3.47;;
60653;SDS011;46476;53.614;10.048;2022-08-03T05:00:58;4.63;;;3.42;;
60653;SDS011;46476;53.614;10.048;2022-08-03T05:03:24;4.07;;;3.33;;
60653;SDS011;46476;53.614;10.048;2022-08-03T05:05:50;6.05;;;3.60;;
60653;SDS011;46476;53.614;10.048;2022-08-03T05:08:16;3.70;;;3.40;;
60653;SDS011;46476;53.614;10.048;2022-08-03T05:10:44;4.18;;;3.47;;
60653;SDS011;46476;53.614;10.048;2022-08-03T05:13:10;3.83;;;3.45;;
60653;SDS011;46476;53.614;10.048;2022-08-03T05:15:37;4.43;;;3.38;;
60653;SDS011;46476;53.614;10.048;2022-08-03T05:18:02;3.15;;;2.80;;
60653;SDS011;46476;53.614;10.048;2022-08-03T05:20:28;3.60;;;3.30;;
60653;SDS011;46476;53.614;10.048;2022-08-03T05:22:53;3.20;;;2.90;;
60653;SDS011;46476;53.614;10.048;2022-08-03T05:25:18;5.55;;;3.25;;
60653;SDS011;46476;53.614;10.048;2022-08-03T05:27:44;4.50;;;3.00;;
60653;SDS011;46476;53.614;10.048;2022-08-03T05:30:09;4.70;;;3.20;;
60653;SDS011;46476;53.614;10.048;2022-08-03T05:32:35;4.25;;;3.55;;
60653;SDS011;46476;53.614;10.048;2022-08-03T05:35:00;5.93;;;3.45;;
60653;SDS011;46476;53.614;10.048;2022-08-03T05:37:25;4.20;;;3.25;;
60653;SDS011;46476;53.614;10.048;2022-08-03T05:39:50;4.07;;;3.67;;
60653;SDS011;46476;53.614;10.048;2022-08-03T05:42:16;3.50;;;2.88;;
60653;SDS011;46476;53.614;10.048;2022-08-03T05:44:41;4.55;;;3.25;;
60653;SDS011;46476;53.614;10.048;2022-08-03T05:47:06;5.45;;;3.63;;
60653;SDS011;46476;53.614;10.048;2022-08-03T05:49:32;4.32;;;3.83;;
60653;SDS011;46476;53.614;10.048;2022-08-03T05:51:57;6.90;;;3.42;;
60653;SDS011;46476;53.614;10.048;2022-08-03T05:54:22;4.93;;;3.35;;
60653;SDS011;46476;53.614;10.048;2022-08-03T05:56:48;5.38;;;3.17;;
60653;SDS011;46476;53.614;10.048;2022-08-03T05:59:13;5.35;;;3.65;;
60653;SDS011;46476;53.614;10.048;2022-08-03T06:01:38;4.68;;;3.22;;
60653;SDS011;46476;53.614;10.048;2022-08-03T06:04:03;8.05;;;3.30;;
60653;SDS011;46476;53.614;10.048;2022-08-03T06:06:29;4.13;;;3.55;;
60653;SDS011;46476;53.614;10.048;2022-08-03T06:08:54;5.10;;;3.50;;
60653;SDS011;46476;53.614;10.048;2022-08-03T06:11:19;5.68;;;3.38;;
60653;SDS011;46476;53.614;10.048;2022-08-03T06:13:45;4.65;;;3.28;;
60653;SDS011;46476;53.614;10.048;2022-08-03T06:16:10;8.07;;;3.20;;
60653;SDS011;46476;53.614;10.048;2022-08-03T06:18:35;4.93;;;3.47;;
60653;SDS011;46476;53.614;10.048;2022-08-03T06:21:01;5.72;;;3.05;;
60653;SDS011;46476;53.614;10.048;2022-08-03T06:23:28;4.70;;;3.38;;
60653;SDS011;46476;53.614;10.048;2022-08-03T06:25:53;4.88;;;3.30;;
60653;SDS011;46476;53.614;10.048;2022-08-03T06:28:18;5.28;;;2.83;;
60653;SDS011;46476;53.614;10.048;2022-08-03T06:30:44;6.53;;;3.00;;
60653;SDS011;46476;53.614;10.048;2022-08-03T06:33:10;4.07;;;3.15;;
60653;SDS011;46476;53.614;10.048;2022-08-03T06:35:35;3.47;;;2.88;;
60653;SDS011;46476;53.614;10.048;2022-08-03T06:38:01;6.32;;;3.30;;
60653;SDS011;46476;53.614;10.048;2022-08-03T06:40:26;4.95;;;3.22;;
60653;SDS011;46476;53.614;10.048;2022-08-03T06:42:59;4.25;;;2.95;;
60653;SDS011;46476;53.614;10.048;2022-08-03T06:45:26;4.45;;;3.00;;
60653;SDS011;46476;53.614;10.048;2022-08-03T06:50:44;3.78;;;2.75;;
60653;SDS011;46476;53.614;10.048;2022-08-03T06:53:09;5.57;;;2.80;;
60653;SDS011;46476;53.614;10.048;2022-08-03T06:55:35;5.10;;;2.75;;
60653;SDS011;46476;53.614;10.048;2022-08-03T06:58:00;6.80;;;3.00;;
60653;SDS011;46476;53.614;10.048;2022-08-03T07:00:25;4.05;;;3.05;;
60653;SDS011;46476;53.614;10.048;2022-08-03T07:02:52;3.88;;;2.65;;
60653;SDS011;46476;53.614;10.048;2022-08-03T07:05:17;4.55;;;2.78;;
60653;SDS011;46476;53.614;10.048;2022-08-03T07:07:42;4.88;;;2.90;;
60653;SDS011;46476;53.614;10.048;2022-08-03T07:10:08;4.45;;;2.40;;
60653;SDS011;46476;53.614;10.048;2022-08-03T07:12:35;3.90;;;2.95;;
60653;SDS011;46476;53.614;10.048;2022-08-03T07:15:02;3.60;;;2.38;;
60653;SDS011;46476;53.614;10.048;2022-08-03T07:17:29;5.15;;;2.38;;
60653;SDS011;46476;53.614;10.048;2022-08-03T07:19:56;2.30;;;2.08;;
60653;SDS011;46476;53.614;10.048;2022-08-03T07:22:21;3.03;;;2.38;;
60653;SDS011;46476;53.614;10.048;2022-08-03T07:24:47;4.78;;;2.33;;
60653;SDS011;46476;53.614;10.048;2022-08-03T07:27:12;2.92;;;2.38;;
60653;SDS011;46476;53.614;10.048;2022-08-03T07:29:40;5.15;;;2.10;;
60653;SDS011;46476;53.614;10.048;2022-08-03T07:32:05;3.65;;;2.30;;
60653;SDS011;46476;53.614;10.048;2022-08-03T07:34:31;2.95;;;2.20;;
60653;SDS011;46476;53.614;10.048;2022-08-03T07:36:56;4.40;;;2.20;;
60653;SDS011;46476;53.614;10.048;2022-08-03T07:39:21;6.50;;;2.60;;
60653;SDS011;46476;53.614;10.048;2022-08-03T07:41:47;4.00;;;2.33;;
60653;SDS011;46476;53.614;10.048;2022-08-03T07:44:15;3.15;;;2.40;;
60653;SDS011;46476;53.614;10.048;2022-08-03T07:46:41;3.67;;;2.10;;
60653;SDS011;46476;53.614;10.048;2022-08-03T07:49:06;3.05;;;1.95;;
60653;SDS011;46476;53.614;10.048;2022-08-03T07:51:31;2.88;;;2.28;;
60653;SDS011;46476;53.614;10.048;2022-08-03T07:53:57;4.07;;;2.20;;
60653;SDS011;46476;53.614;10.048;2022-08-03T07:56:23;3.38;;;2.03;;
60653;SDS011;46476;53.614;10.048;2022-08-03T07:58:52;3.88;;;1.98;;
60653;SDS011;46476;53.614;10.048;2022-08-03T08:01:17;3.55;;;2.30;;
60653;SDS011;46476;53.614;10.048;2022-08-03T08:03:44;5.13;;;2.80;;
60653;SDS011;46476;53.614;10.048;2022-08-03T08:06:13;2.65;;;2.17;;
60653;SDS011;46476;53.614;10.048;2022-08-03T08:08:38;3.05;;;1.98;;
60653;SDS011;46476;53.614;10.048;2022-08-03T08:11:04;3.53;;;2.20;;
60653;SDS011;46476;53.614;10.048;2022-08-03T08:13:30;2.28;;;1.50;;
60653;SDS011;46476;53.614;10.048;2022-08-03T08:15:56;1.80;;;1.40;;
60653;SDS011;46476;53.614;10.048;2022-08-03T08:18:21;1.83;;;1.45;;
60653;SDS011;46476;53.614;10.048;2022-08-03T08:20:48;1.88;;;1.30;;
60653;SDS011;46476;53.614;10.048;2022-08-03T08:23:13;2.95;;;1.40;;
60653;SDS011;46476;53.614;10.048;2022-08-03T08:25:38;5.50;;;1.15;;
60653;SDS011;46476;53.614;10.048;2022-08-03T08:28:04;2.25;;;1.25;;
60653;SDS011;46476;53.614;10.048;2022-08-03T08:30:30;5.13;;;1.33;;
60653;SDS011;46476;53.614;10.048;2022-08-03T08:32:58;3.13;;;1.10;;
60653;SDS011;46476;53.614;10.048;2022-08-03T08:35:23;1.30;;;1.00;;
60653;SDS011;46476;53.614;10.048;2022-08-03T08:37:49;2.63;;;1.27;;
60653;SDS011;46476;53.614;10.048;2022-08-03T08:40:14;1.73;;;1.05;;
60653;SDS011;46476;53.614;10.048;2022-08-03T08:42:40;3.17;;;1.10;;
60653;SDS011;46476;53.614;10.048;2022-08-03T08:45:06;2.85;;;1.10;;
60653;SDS011;46476;53.614;10.048;2022-08-03T08:47:33;4.07;;;1.15;;
60653;SDS011;46476;53.614;10.048;2022-08-03T08:50:02;1.95;;;1.17;;
60653;SDS011;46476;53.614;10.048;2022-08-03T08:52:28;2.35;;;1.00;;
60653;SDS011;46476;53.614;10.048;2022-08-03T08:54:55;4.57;;;1.40;;
60653;SDS011;46476;53.614;10.048;2022-08-03T08:57:29;3.70;;;1.50;;
60653;SDS011;46476;53.614;10.048;2022-08-03T09:00:00;2.25;;;1.27;;
60653;SDS011;46476;53.614;10.048;2022-08-03T09:02:28;2.33;;;1.40;;
60653;SDS011;46476;53.614;10.048;2022-08-03T09:04:53;2.75;;;1.58;;
60653;SDS011;46476;53.614;10.048;2022-08-03T09:07:19;2.58;;;1.50;;
60653;SDS011;46476;53.614;10.048;2022-08-03T09:09:45;2.95;;;1.60;;
60653;SDS011;46476;53.614;10.048;2022-08-03T09:12:10;3.88;;;1.67;;
60653;SDS011;46476;53.614;10.048;2022-08-03T09:14:35;3.38;;;1.40;;
60653;SDS011;46476;53.614;10.048;2022-08-03T09:17:01;5.03;;;1.90;;
60653;SDS011;46476;53.614;10.048;2022-08-03T09:19:28;2.45;;;1.17;;
60653;SDS011;46476;53.614;10.048;2022-08-03T09:24:34;3.67;;;1.38;;
60653;SDS011;46476;53.614;10.048;2022-08-03T09:26:59;2.67;;;1.38;;
60653;SDS011;46476;53.614;10.048;2022-08-03T09:29:25;1.95;;;1.10;;
60653;SDS011;46476;53.614;10.048;2022-08-03T09:31:58;1.70;;;1.15;;
60653;SDS011;46476;53.614;10.048;2022-08-03T09:34:25;2.22;;;1.27;;
60653;SDS011;46476;53.614;10.048;2022-08-03T09:36:52;2.38;;;1.38;;
60653;SDS011;46476;53.614;10.048;2022-08-03T09:39:19;4.05;;;1.40;;
60653;SDS011;46476;53.614;10.048;2022-08-03T09:41:47;4.65;;;1.45;;
60653;SDS011;46476;53.614;10.048;2022-08-03T09:44:34;3.17;;;1.23;;
60653;SDS011;46476;53.614;10.048;2022-08-03T09:47:01;1.15;;;0.95;;
60653;SDS011;46476;53.614;10.048;2022-08-03T09:49:26;1.63;;;1.00;;
60653;SDS011;46476;53.614;10.048;2022-08-03T09:51:52;3.45;;;1.15;;
60653;SDS011;46476;53.614;10.048;2022-08-03T09:54:24;2.03;;;1.38;;
60653;SDS011;46476;53.614;10.048;2022-08-03T09:56:53;2.55;;;1.20;;
60653;SDS011;46476;53.614;10.048;2022-08-03T09:59:24;3.33;;;1.10;;
60653;SDS011;46476;53.614;10.048;2022-08-03T10:01:54;3.85;;;1.67;;
60653;SDS011;46476;53.614;10.048;2022-08-03T10:04:21;2.78;;;1.13;;
60653;SDS011;46476;53.614;10.048;2022-08-03T10:07:06;3.45;;;1.10;;
60653;SDS011;46476;53.614;10.048;2022-08-03T10:09:33;2.65;;;1.10;;
60653;SDS011;46476;53.614;10.048;2022-08-03T10:12:09;2.58;;;1.35;;
60653;SDS011;46476;53.614;10.048;2022-08-03T10:14:37;1.77;;;1.00;;
60653;SDS011;46476;53.614;10.048;2022-08-03T10:17:03;4.38;;;1.13;;
60653;SDS011;46476;53.614;10.048;2022-08-03T10:19:28;2.33;;;1.00;;
60653;SDS011;46476;53.614;10.048;2022-08-03T10:21:56;3.00;;;1.10;;
60653;SDS011;46476;53.614;10.048;2022-08-03T10:24:27;2.13;;;1.08;;
60653;SDS011;46476;53.614;10.048;2022-08-03T10:27:05;3.25;;;1.00;;
60653;SDS011;46476;53.614;10.048;2022-08-03T10:29:36;2.67;;;1.05;;
60653;SDS011;46476;53.614;10.048;2022-08-03T10:32:03;2.67;;;1.13;;
60653;SDS011;46476;53.614;10.048;2022-08-03T10:37:07;4.05;;;1.00;;
60653;SDS011;46476;53.614;10.048;2022-08-03T10:39:34;4.47;;;1.00;;
60653;SDS011;46476;53.614;10.048;2022-08-03T10:42:00;3.53;;;0.90;;
60653;SDS011;46476;53.614;10.048;2022-08-03T10:44:29;3.63;;;1.20;;
60653;SDS011;46476;53.614;10.048;2022-08-03T10:47:01;2.83;;;1.13;;
60653;SDS011;46476;53.614;10.048;2022-08-03T10:49:28;2.13;;;0.90;;
60653;SDS011;46476;53.614;10.048;2022-08-03T10:51:54;2.85;;;1.00;;
60653;SDS011;46476;53.614;10.048;2022-08-03T10:54:38;3.28;;;1.23;;
60653;SDS011;46476;53.614;10.048;2022-08-03T11:00:27;2.13;;;1.10;;
60653;SDS011;46476;53.614;10.048;2022-08-03T11:03:01;2.95;;;0.98;;
60653;SDS011;46476;53.614;10.048;2022-08-03T11:05:30;3.92;;;1.20;;
60653;SDS011;46476;53.614;10.048;2022-08-03T11:08:19;5.20;;;1.30;;
60653;SDS011;46476;53.614;10.048;2022-08-03T11:10:45;1.75;;;0.77;;
60653;SDS011;46476;53.614;10.048;2022-08-03T11:13:13;1.88;;;0.88;;
60653;SDS011;46476;53.614;10.048;2022-08-03T11:15:40;3.97;;;1.30;;
60653;SDS011;46476;53.614;10.048;2022-08-03T11:18:09;4.88;;;1.27;;
60653;SDS011;46476;53.614;10.048;2022-08-03T11:20:45;2.38;;;1.20;;
60653;SDS011;46476;53.614;10.048;2022-08-03T11:23:38;2.38;;;1.00;;
60653;SDS011;46476;53.614;10.048;2022-08-03T11:26:18;3.38;;;0.90;;
60653;SDS011;46476;53.614;10.048;2022-08-03T11:28:46;2.75;;;1.10;;
60653;SDS011;46476;53.614;10.048;2022-08-03T11:34:09;1.98;;;1.00;;
60653;SDS011;46476;53.614;10.048;2022-08-03T11:39:39;2.67;;;0.85;;
60653;SDS011;46476;53.614;10.048;2022-08-03T11:42:55;3.28;;;0.93;;
60653;SDS011;46476;53.614;10.048;2022-08-03T11:44:58;3.60;;;1.05;;
60653;SDS011;46476;53.614;10.048;2022-08-03T11:47:26;5.55;;;1.00;;
60653;SDS011;46476;53.614;10.048;2022-08-03T11:49:53;2.13;;;0.70;;
60653;SDS011;46476;53.614;10.048;2022-08-03T11:52:24;4.82;;;1.10;;
60653;SDS011;46476;53.614;10.048;2022-08-03T11:54:50;2.78;;;1.10;;
60653;SDS011;46476;53.614;10.048;2022-08-03T11:57:29;2.30;;;1.20;;
60653;SDS011;46476;53.614;10.048;2022-08-03T11:59:55;1.50;;;1.00;;
60653;SDS011;46476;53.614;10.048;2022-08-03T12:02:20;2.40;;;0.98;;
60653;SDS011;46476;53.614;10.048;2022-08-03T12:04:49;0.98;;;0.88;;
60653;SDS011;46476;53.614;10.048;2022-08-03T12:07:16;3.05;;;0.98;;
60653;SDS011;46476;53.614;10.048;2022-08-03T12:09:42;1.83;;;1.00;;
60653;SDS011;46476;53.614;10.048;2022-08-03T12:12:08;3.20;;;1.52;;
60653;SDS011;46476;53.614;10.048;2022-08-03T12:14:33;3.33;;;0.90;;
60653;SDS011;46476;53.614;10.048;2022-08-03T12:16:58;4.43;;;1.10;;
60653;SDS011;46476;53.614;10.048;2022-08-03T12:19:24;4.10;;;1.20;;
60653;SDS011;46476;53.614;10.048;2022-08-03T12:21:49;2.55;;;1.10;;
60653;SDS011;46476;53.614;10.048;2022-08-03T12:24:15;3.42;;;0.90;;
60653;SDS011;46476;53.614;10.048;2022-08-03T12:26:43;3.47;;;0.90;;
60653;SDS011;46476;53.614;10.048;2022-08-03T12:29:43;1.90;;;0.80;;
60653;SDS011;46476;53.614;10.048;2022-08-03T12:32:01;5.55;;;0.90;;
60653;SDS011;46476;53.614;10.048;2022-08-03T12:34:45;4.57;;;0.85;;
60653;SDS011;46476;53.614;10.048;2022-08-03T12:37:12;2.30;;;0.90;;
60653;SDS011;46476;53.614;10.048;2022-08-03T12:39:37;2.13;;;1.08;;
60653;SDS011;46476;53.614;10.048;2022-08-03T12:42:03;5.00;;;1.15;;
60653;SDS011;46476;53.614;10.048;2022-08-03T12:44:29;2.65;;;0.90;;
60653;SDS011;46476;53.614;10.048;2022-08-03T12:46:56;3.78;;;1.38;;
60653;SDS011;46476;53.614;10.048;2022-08-03T12:49:22;2.72;;;0.90;;
60653;SDS011;46476;53.614;10.048;2022-08-03T12:54:20;2.58;;;1.05;;
60653;SDS011;46476;53.614;10.048;2022-08-03T12:57:00;2.35;;;1.10;;
60653;SDS011;46476;53.614;10.048;2022-08-03T12:59:31;2.72;;;1.05;;
60653;SDS011;46476;53.614;10.048;2022-08-03T13:02:04;2.25;;;0.98;;
60653;SDS011;46476;53.614;10.048;2022-08-03T13:04:30;3.28;;;1.10;;
60653;SDS011;46476;53.614;10.048;2022-08-03T13:07:04;4.55;;;1.17;;
60653;SDS011;46476;53.614;10.048;2022-08-03T13:14:32;3.58;;;1.05;;
60653;SDS011;46476;53.614;10.048;2022-08-03T13:16:57;1.85;;;0.90;;
60653;SDS011;46476;53.614;10.048;2022-08-03T13:19:23;2.38;;;1.10;;
60653;SDS011;46476;53.614;10.048;2022-08-03T13:21:48;3.83;;;1.13;;
60653;SDS011;46476;53.614;10.048;2022-08-03T13:24:14;3.40;;;0.90;;
60653;SDS011;46476;53.614;10.048;2022-08-03T13:26:39;2.28;;;1.00;;
60653;SDS011;46476;53.614;10.048;2022-08-03T13:29:04;4.10;;;1.30;;
60653;SDS011;46476;53.614;10.048;2022-08-03T13:31:30;2.03;;;1.13;;
60653;SDS011;46476;53.614;10.048;2022-08-03T13:33:55;3.33;;;1.17;;
60653;SDS011;46476;53.614;10.048;2022-08-03T13:36:21;2.55;;;0.90;;
60653;SDS011;46476;53.614;10.048;2022-08-03T13:38:46;1.77;;;0.95;;
60653;SDS011;46476;53.614;10.048;2022-08-03T13:41:11;2.03;;;0.90;;
60653;SDS011;46476;53.614;10.048;2022-08-03T13:43:36;3.00;;;1.08;;
60653;SDS011;46476;53.614;10.048;2022-08-03T13:46:02;3.45;;;0.98;;
60653;SDS011;46476;53.614;10.048;2022-08-03T13:48:27;3.17;;;1.25;;
60653;SDS011;46476;53.614;10.048;2022-08-03T13:50:52;3.05;;;0.93;;
60653;SDS011;46476;53.614;10.048;2022-08-03T13:53:18;6.85;;;0.90;;
60653;SDS011;46476;53.614;10.048;2022-08-03T13:55:43;2.63;;;0.85;;
60653;SDS011;46476;53.614;10.048;2022-08-03T13:58:08;1.90;;;0.80;;
60653;SDS011;46476;53.614;10.048;2022-08-03T14:00:36;2.88;;;1.10;;
60653;SDS011;46476;53.614;10.048;2022-08-03T14:03:02;3.78;;;1.15;;
60653;SDS011;46476;53.614;10.048;2022-08-03T14:05:30;2.35;;;1.10;;
60653;SDS011;46476;53.614;10.048;2022-08-03T14:07:58;2.03;;;0.90;;
60653;SDS011;46476;53.614;10.048;2022-08-03T14:10:29;3.30;;;1.13;;
60653;SDS011;46476;53.614;10.048;2022-08-03T14:12:54;5.95;;;1.35;;
60653;SDS011;46476;53.614;10.048;2022-08-03T14:15:20;2.80;;;0.93;;
60653;SDS011;46476;53.614;10.048;2022-08-03T14:17:46;2.83;;;1.02;;
60653;SDS011;46476;53.614;10.048;2022-08-03T14:20:11;4.18;;;1.00;;
60653;SDS011;46476;53.614;10.048;2022-08-03T14:22:38;2.53;;;1.10;;
60653;SDS011;46476;53.614;10.048;2022-08-03T14:25:04;2.58;;;1.10;;
60653;SDS011;46476;53.614;10.048;2022-08-03T14:27:30;2.25;;;0.95;;
60653;SDS011;46476;53.614;10.048;2022-08-03T14:29:55;3.45;;;1.02;;
60653;SDS011;46476;53.614;10.048;2022-08-03T14:32:23;2.15;;;1.42;;
60653;SDS011;46476;53.614;10.048;2022-08-03T14:34:50;2.42;;;1.23;;
60653;SDS011;46476;53.614;10.048;2022-08-03T14:37:15;3.13;;;1.10;;
60653;SDS011;46476;53.614;10.048;2022-08-03T14:39:40;3.53;;;0.98;;
60653;SDS011;46476;53.614;10.048;2022-08-03T14:42:05;2.40;;;1.00;;
60653;SDS011;46476;53.614;10.048;2022-08-03T14:44:31;2.03;;;0.85;;
60653;SDS011;46476;53.614;10.048;2022-08-03T14:46:56;1.90;;;0.90;;
60653;SDS011;46476;53.614;10.048;2022-08-03T14:49:21;2.85;;;1.08;;
60653;SDS011;46476;53.614;10.048;2022-08-03T14:51:47;2.10;;;0.93;;
60653;SDS011;46476;53.614;10.048;2022-08-03T14:54:12;4.13;;;1.30;;
60653;SDS011;46476;53.614;10.048;2022-08-03T14:56:37;3.38;;;1.10;;
60653;SDS011;46476;53.614;10.048;2022-08-03T14:59:02;2.33;;;0.90;;
60653;SDS011;46476;53.614;10.048;2022-08-03T15:01:28;3.75;;;1.15;;
60653;SDS011;46476;53.614;10.048;2022-08-03T15:03:53;3.55;;;1.45;;
60653;SDS011;46476;53.614;10.048;2022-08-03T15:06:18;2.78;;;1.60;;
60653;SDS011;46476;53.614;10.048;2022-08-03T15:08:44;2.78;;;1.40;;
60653;SDS011;46476;53.614;10.048;2022-08-03T15:11:10;3.40;;;1.20;;
60653;SDS011;46476;53.614;10.048;2022-08-03T15:13:35;2.95;;;1.30;;
60653;SDS011;46476;53.614;10.048;2022-08-03T15:16:00;4.07;;;1.08;;
60653;SDS011;46476;53.614;10.048;2022-08-03T15:18:26;2.67;;;1.15;;